Time;durP1;ratioP1;P1;durP2;ratioP2;P2;SDS_P1;SDS_P2;PMS_P1;PMS_P2;Temp;Humidity;BMP_temperature;BMP_pressure;BME280_temperature;BME280_humidity;BME280_pressure;Samples;Min_cycle;Max_cycle;Signal;HPM_P1;HPM_P2
2021/12/19 00:01:07;;;;;;;1999.90;999.90;;;;;;;5.21;100.00;163786.75;5041488;28;20084;-66
2021/12/19 00:08:50;;;;;;;1999.90;999.90;;;;;;;5.65;100.00;163904.75;5040909;28;20076;-66
2021/12/19 00:11:19;;;;;;;1999.90;999.90;;;;;;;5.91;100.00;163972.00;5036839;28;20049;-67
2021/12/19 00:13:46;;;;;;;1999.90;999.90;;;;;;;5.37;100.00;163829.25;5042282;28;20088;-67
2021/12/19 00:16:13;;;;;;;1999.90;999.90;;;;;;;5.40;100.00;163836.13;5040336;28;20162;-67
2021/12/19 00:18:44;;;;;;;1999.90;999.90;;;;;;;5.60;100.00;163889.69;5037658;28;20257;-66
2021/12/19 00:21:11;;;;;;;1999.90;999.90;;;;;;;5.62;100.00;163895.16;5039572;28;20053;-66
2021/12/19 00:23:39;;;;;;;1999.90;999.90;;;;;;;5.20;100.00;163782.63;5037722;28;20071;-66
2021/12/19 00:26:06;;;;;;;1999.90;999.90;;;;;;;5.34;100.00;163821.03;5035575;28;20400;-66
2021/12/19 00:28:33;;;;;;;1999.90;999.90;;;;;;;5.10;100.00;163756.53;5040900;28;20357;-66
2021/12/19 00:31:00;;;;;;;1999.90;999.90;;;;;;;4.80;100.00;163676.97;5030559;28;20085;-66
2021/12/19 00:33:27;;;;;;;1999.90;999.90;;;;;;;5.11;100.00;163759.28;5029837;28;20115;-66
2021/12/19 00:35:53;;;;;;;1999.90;999.90;;;;;;;5.07;100.00;163748.31;5036601;28;20504;-66
2021/12/19 00:38:20;;;;;;;1999.90;999.90;;;;;;;4.82;100.00;163681.06;5034194;28;20049;-66
2021/12/19 00:40:48;;;;;;;1999.90;999.90;;;;;;;4.74;100.00;163660.50;5030762;28;20045;-66
2021/12/19 00:46:12;;;;;;;1999.90;999.90;;;;;;;4.64;100.00;163633.06;5056743;28;20080;-66
2021/12/19 00:48:52;;;;;;;1999.90;999.90;;;;;;;4.80;100.00;163676.97;5033012;28;20091;-66
2021/12/19 00:51:24;;;;;;;1999.90;999.90;;;;;;;4.83;100.00;163685.19;5040185;28;20049;-66
2021/12/19 00:53:53;;;;;;;1999.90;999.90;;;;;;;4.80;100.00;163676.97;5040914;28;20158;-66
2021/12/19 00:56:20;;;;;;;1999.90;999.90;;;;;;;5.35;100.00;163822.44;5046439;28;20052;-66
2021/12/19 00:58:47;;;;;;;1999.90;999.90;;;;;;;5.23;100.00;163792.22;5033620;28;20052;-67
2021/12/19 01:01:15;;;;;;;1999.90;999.90;;;;;;;4.90;100.00;163704.41;5042520;28;20069;-67
2021/12/19 01:03:46;;;;;;;1999.90;999.90;;;;;;;4.94;100.00;163713.97;5039031;28;20091;-66
2021/12/19 01:06:16;;;;;;;;;;;;;;;4.75;100.00;163664.63;5042232;28;20045;-67
2021/12/19 01:08:43;;;;;;;1999.90;999.90;;;;;;;5.04;100.00;163741.44;5048632;28;19952;-67
2021/12/19 01:11:09;;;;;;;1999.90;999.90;;;;;;;5.40;100.00;163836.13;5038210;28;20096;-67
2021/12/19 01:13:36;;;;;;;1999.90;999.90;;;;;;;4.94;100.00;163715.38;5046812;28;20088;-66
2021/12/19 01:16:03;;;;;;;1999.90;999.90;;;;;;;4.88;100.00;163698.94;5049584;28;20045;-67
2021/12/19 01:18:30;;;;;;;1999.90;999.90;;;;;;;4.96;100.00;163719.50;5038098;28;20089;-67
2021/12/19 01:20:57;;;;;;;1999.90;999.90;;;;;;;4.86;100.00;163693.41;5042200;28;20438;-67
2021/12/19 01:23:23;;;;;;;1999.90;999.90;;;;;;;5.05;100.00;163744.19;5043415;28;20092;-66
2021/12/19 01:25:51;;;;;;;1999.90;999.90;;;;;;;5.01;100.00;163733.19;5041578;28;20250;-67
2021/12/19 01:28:18;;;;;;;1999.90;999.90;;;;;;;4.81;100.00;163678.31;5038882;28;20084;-67
2021/12/19 01:30:45;;;;;;;1999.90;999.90;;;;;;;4.93;100.00;163712.63;5044165;28;20101;-67
2021/12/19 01:33:12;;;;;;;1999.90;999.90;;;;;;;4.81;100.00;163679.72;5040074;28;20085;-67
2021/12/19 01:35:39;;;;;;;1999.90;999.90;;;;;;;5.21;100.00;163786.75;5041629;28;20041;-67
2021/12/19 01:38:05;;;;;;;1999.90;999.90;;;;;;;5.06;100.00;163746.94;5036802;28;20114;-67
2021/12/19 01:40:32;;;;;;;1999.90;999.90;;;;;;;4.75;100.00;163663.25;5039307;28;20069;-67
2021/12/19 01:42:59;;;;;;;1999.90;999.90;;;;;;;5.01;100.00;163731.84;5049112;28;20083;-67
2021/12/19 01:45:31;;;;;;;1999.90;999.90;;;;;;;4.72;100.00;163656.38;5039628;28;20620;-67
2021/12/19 01:47:59;;;;;;;1999.90;999.90;;;;;;;4.75;100.00;163663.25;5037725;28;20049;-67
2021/12/19 01:50:27;;;;;;;1999.90;999.90;;;;;;;4.79;100.00;163674.19;5039774;28;20419;-67
2021/12/19 01:52:53;;;;;;;1999.90;999.90;;;;;;;4.90;100.00;163704.41;5037460;28;20091;-67
2021/12/19 01:55:20;;;;;;;1999.90;999.90;;;;;;;4.54;100.00;163606.97;5037493;28;20045;-67
2021/12/19 01:57:47;;;;;;;1999.90;999.90;;;;;;;4.51;100.00;163600.16;5043598;28;20076;-67
2021/12/19 02:00:18;;;;;;;1999.90;999.90;;;;;;;5.01;100.00;163733.19;5040417;28;20167;-67
2021/12/19 02:02:45;;;;;;;1999.90;999.90;;;;;;;5.33;100.00;163816.91;5054529;28;20061;-67
2021/12/19 02:05:11;;;;;;;1999.90;999.90;;;;;;;5.12;100.00;163762.00;5036996;28;20045;-67
2021/12/19 02:07:42;;;;;;;1999.90;999.90;;;;;;;5.31;100.00;163812.78;5043105;28;20081;-67
2021/12/19 02:10:09;;;;;;;1999.90;999.90;;;;;;;5.44;100.00;163848.47;5034929;28;20442;-64
2021/12/19 02:12:38;;;;;;;1999.90;999.90;;;;;;;5.45;100.00;163849.88;5036584;28;20381;-67
2021/12/19 02:15:05;;;;;;;1999.90;999.90;;;;;;;5.56;100.00;163880.03;5036027;28;20325;-67
2021/12/19 02:17:32;;;;;;;1999.90;999.90;;;;;;;5.26;100.00;163800.44;5036717;28;20084;-67
2021/12/19 02:19:58;;;;;;;1999.90;999.90;;;;;;;5.24;100.00;163794.97;5043405;28;20084;-67
2021/12/19 02:22:25;;;;;;;1999.90;999.90;;;;;;;5.27;100.00;163803.19;5042192;28;20076;-67
2021/12/19 02:24:51;;;;;;;1999.90;999.90;;;;;;;5.07;100.00;163748.31;5039777;28;20274;-67
2021/12/19 02:27:18;;;;;;;1999.90;999.90;;;;;;;4.85;100.00;163689.31;5036440;28;20053;-67
2021/12/19 02:29:44;;;;;;;1999.90;999.90;;;;;;;4.99;100.00;163726.31;5041587;28;20138;-67
2021/12/19 02:32:11;;;;;;;1999.90;999.90;;;;;;;5.09;100.00;163753.78;5043916;28;20080;-67
2021/12/19 02:34:42;;;;;;;1999.90;999.90;;;;;;;5.36;100.00;163826.53;5039457;28;20079;-67
2021/12/19 02:37:41;;;;;;;1999.90;999.90;;;;;;;5.29;100.00;163808.66;5033757;28;20431;-67
2021/12/19 02:48:13;;;;;;;1999.90;999.90;;;;;;;5.70;100.00;163917.13;5033149;28;20120;-67
2021/12/19 02:50:48;;;;;;;1999.90;999.90;;;;;;;5.79;100.00;163941.84;5037683;28;20056;-67
2021/12/19 02:53:29;;;;;;;1999.90;999.90;;;;;;;5.90;100.00;163969.28;5036504;28;20057;-66
2021/12/19 02:55:56;;;;;;;1999.90;999.90;;;;;;;5.92;100.00;163976.13;5038048;28;20057;-66
2021/12/19 02:58:22;;;;;;;1999.90;999.90;;;;;;;6.09;100.00;164020.09;5042832;28;20122;-66
2021/12/19 03:00:50;;;;;;;1999.90;999.90;;;;;;;6.02;100.00;164000.94;5039452;28;20127;-66
2021/12/19 03:03:17;;;;;;;1999.90;999.90;;;;;;;5.80;100.00;163943.19;5034861;28;20071;-66
2021/12/19 03:05:44;;;;;;;1999.90;999.90;;;;;;;6.20;100.00;164050.34;5042601;28;20037;-66
2021/12/19 03:08:11;;;;;;;1999.90;999.90;;;;;;;5.58;100.00;163885.56;5043306;28;20085;-66
2021/12/19 03:13:26;;;;;;;1999.90;999.90;;;;;;;5.46;100.00;163852.59;5033511;28;20084;-66
2021/12/19 03:18:40;;;;;;;1999.90;999.90;;;;;;;5.04;100.00;163740.06;5042094;28;20098;-66
2021/12/19 03:21:11;;;;;;;1999.90;999.90;;;;;;;5.26;100.00;163799.09;5039921;28;20379;-66
2021/12/19 03:23:38;;;;;;;1999.90;999.90;;;;;;;4.94;100.00;163713.97;5035083;28;20131;-65
2021/12/19 03:26:05;;;;;;;1999.90;999.90;;;;;;;5.12;100.00;163762.00;5041985;28;20045;-66
2021/12/19 03:28:31;;;;;;;1999.90;999.90;;;;;;;5.06;100.00;163745.53;5043595;28;20069;-66
2021/12/19 03:30:58;;;;;;;1999.90;999.90;;;;;;;5.35;100.00;163822.44;5042604;28;20089;-66
2021/12/19 03:33:25;;;;;;;1999.90;999.90;;;;;;;5.32;100.00;163814.19;5035407;28;20077;-66
2021/12/19 03:35:52;;;;;;;1999.90;999.90;;;;;;;5.16;100.00;163773.00;5035152;28;20475;-66
2021/12/19 03:38:19;;;;;;;1999.90;999.90;;;;;;;5.04;100.00;163740.06;5034642;28;20092;-66
2021/12/19 03:40:53;;;;;;;1999.90;999.90;;;;;;;5.12;100.00;163762.00;5044481;28;20052;-66
2021/12/19 03:43:22;;;;;;;1999.90;999.90;;;;;;;4.83;100.00;163683.84;5036228;28;20102;-66
2021/12/19 03:45:49;;;;;;;1999.90;999.90;;;;;;;4.79;100.00;163674.19;5030062;28;20111;-66
2021/12/19 03:48:17;;;;;;;1999.90;999.90;;;;;;;4.84;100.00;163686.53;5033042;28;20080;-66
2021/12/19 03:50:48;;;;;;;1999.90;999.90;;;;;;;4.90;100.00;163703.03;5041302;28;20109;-66
2021/12/19 03:53:17;;;;;;;1999.90;999.90;;;;;;;4.84;100.00;163687.94;5039734;28;20107;-65
2021/12/19 03:55:44;;;;;;;1999.90;999.90;;;;;;;4.62;100.00;163627.59;5040707;28;20042;-65
2021/12/19 03:58:11;;;;;;;1999.90;999.90;;;;;;;4.52;100.00;163602.88;5032778;28;20224;-66
2021/12/19 04:00:38;;;;;;;1999.90;999.90;;;;;;;4.67;100.00;163641.28;5042238;28;20048;-65
2021/12/19 04:03:09;;;;;;;1999.90;999.90;;;;;;;4.74;100.00;163660.50;5043323;28;20088;-66
2021/12/19 04:05:40;;;;;;;1999.90;999.90;;;;;;;4.73;100.00;163657.75;5038613;28;20320;-66
2021/12/19 04:08:06;;;;;;;1999.90;999.90;;;;;;;5.33;100.00;163816.91;5047230;28;20101;-66
2021/12/19 04:10:33;;;;;;;1999.90;999.90;;;;;;;4.91;100.00;163705.75;5037208;28;20049;-66
2021/12/19 04:13:00;;;;;;;1999.90;999.90;;;;;;;4.75;100.00;163664.63;5041184;28;20053;-65
2021/12/19 04:15:27;;;;;;;1999.90;999.90;;;;;;;4.78;100.00;163670.09;5044408;28;20037;-66
2021/12/19 04:17:54;;;;;;;1999.90;999.90;;;;;;;4.60;100.00;163623.47;5032211;28;20438;-67
2021/12/19 04:20:21;;;;;;;1999.90;999.90;;;;;;;4.79;100.00;163672.84;5036635;28;20049;-67
2021/12/19 04:22:50;;;;;;;1999.90;999.90;;;;;;;4.82;100.00;163682.44;5039204;28;20138;-67
2021/12/19 04:25:16;;;;;;;1999.90;999.90;;;;;;;5.02;100.00;163734.59;5047047;28;20061;-67
2021/12/19 04:27:44;;;;;;;1999.90;999.90;;;;;;;5.28;100.00;163805.97;5041357;28;20085;-66
2021/12/19 04:30:22;;;;;;;1999.90;999.90;;;;;;;5.03;100.00;163738.72;5036783;28;20131;-67
2021/12/19 04:32:56;;;;;;;1999.90;999.90;;;;;;;5.25;100.00;163797.69;5041937;28;20049;-67
2021/12/19 04:35:27;;;;;;;1999.90;999.90;;;;;;;5.19;100.00;163781.22;5037487;28;20049;-66
2021/12/19 04:54:16;;;;;;;1999.90;999.90;;;;;;;4.85;100.00;163689.31;5044188;28;20699;-66
2021/12/19 04:57:08;;;;;;;1999.90;999.90;;;;;;;4.81;100.00;163678.31;5042910;28;20086;-66
2021/12/19 05:15:32;;;;;;;1999.90;999.90;;;;;;;5.28;100.00;163805.97;5046113;28;20048;-66
2021/12/19 05:18:04;;;;;;;1999.90;999.90;;;;;;;5.01;100.00;163733.19;5038034;28;20068;-66
2021/12/19 05:20:32;;;;;;;;;;;;;;;5.03;100.00;163737.31;5042287;28;20095;-66
2021/12/19 05:23:16;;;;;;;1999.90;999.90;;;;;;;5.25;100.00;163797.69;5046191;28;19943;-66
2021/12/19 05:25:43;;;;;;;1999.90;999.90;;;;;;;5.25;100.00;163797.69;5076384;28;20077;-66
2021/12/19 05:28:10;;;;;;;1999.90;999.90;;;;;;;5.24;100.00;163793.56;5037663;28;20061;-66
2021/12/19 05:30:36;;;;;;;1999.90;999.90;;;;;;;5.29;100.00;163808.66;5032970;28;20147;-66
2021/12/19 05:33:03;;;;;;;1999.90;999.90;;;;;;;5.48;100.00;163858.09;5039761;28;20512;-66
2021/12/19 05:36:07;;;;;;;1999.90;999.90;;;;;;;5.61;100.00;163893.78;5045270;28;20407;-65
2021/12/19 05:46:40;;;;;;;1999.90;999.90;;;;;;;5.01;100.00;163733.19;5043995;28;20049;-66
2021/12/19 05:49:08;;;;;;;1999.90;999.90;;;;;;;5.08;100.00;163751.06;5035951;28;20077;-66
2021/12/19 05:51:36;;;;;;;1999.90;999.90;;;;;;;5.36;100.00;163825.13;5038575;28;20447;-66
2021/12/19 05:54:04;;;;;;;1999.90;999.90;;;;;;;4.97;100.00;163720.84;5038670;28;20088;-66
2021/12/19 05:56:31;;;;;;;1999.90;999.90;;;;;;;4.69;100.00;163646.75;5033420;28;20044;-68
2021/12/19 05:58:57;;;;;;;1999.90;999.90;;;;;;;4.44;100.00;163579.53;5032340;28;20049;-66
2021/12/19 06:01:24;;;;;;;1999.90;999.90;;;;;;;4.62;100.00;163627.59;5040460;28;20095;-66
2021/12/19 06:03:50;;;;;;;1999.90;999.90;;;;;;;4.49;100.00;163593.28;5038385;28;20166;-66
2021/12/19 06:06:17;;;;;;;1999.90;999.90;;;;;;;4.67;100.00;163641.28;5036224;28;20129;-66
2021/12/19 06:08:43;;;;;;;1999.90;999.90;;;;;;;4.67;100.00;163641.28;5041210;28;20057;-66
2021/12/19 06:11:10;;;;;;;1999.90;999.90;;;;;;;4.81;100.00;163679.72;5039726;28;20462;-65
2021/12/19 06:13:38;;;;;;;1999.90;999.90;;;;;;;5.11;100.00;163760.66;5038429;28;20053;-66
2021/12/19 06:16:07;;;;;;;1999.90;999.90;;;;;;;5.20;100.00;163783.97;5043692;28;20397;-66
2021/12/19 06:18:34;;;;;;;1999.90;999.90;;;;;;;5.31;100.00;163811.44;5043481;28;20390;-66
2021/12/19 06:21:01;;;;;;;1999.90;999.90;;;;;;;4.91;100.00;163707.16;5040435;28;20359;-65
2021/12/19 06:23:27;;;;;;;1999.90;999.90;;;;;;;5.06;100.00;163745.53;5040735;28;20399;-66
2021/12/19 06:25:54;;;;;;;1999.90;999.90;;;;;;;5.06;100.00;163745.53;5043229;28;20077;-66
2021/12/19 06:28:22;;;;;;;1999.90;999.90;;;;;;;5.11;100.00;163759.28;5038215;28;20590;-66
2021/12/19 06:30:49;;;;;;;1999.90;999.90;;;;;;;4.89;100.00;163701.63;5038707;28;20092;-66
2021/12/19 06:33:16;;;;;;;1999.90;999.90;;;;;;;4.77;100.00;163668.72;5035494;28;20107;-66
2021/12/19 06:35:43;;;;;;;1999.90;999.90;;;;;;;4.76;100.00;163667.38;5033504;28;20386;-66
2021/12/19 06:38:09;;;;;;;1999.90;999.90;;;;;;;5.01;100.00;163733.19;5045107;28;20092;-66
2021/12/19 06:40:36;;;;;;;1999.90;999.90;;;;;;;5.13;100.00;163764.75;5041452;28;20080;-66
2021/12/19 06:43:02;;;;;;;1999.90;999.90;;;;;;;5.33;100.00;163816.91;5039555;28;20146;-66
2021/12/19 06:45:29;;;;;;;1999.90;999.90;;;;;;;4.96;100.00;163718.09;5039341;28;20398;-66
2021/12/19 06:47:56;;;;;;;1999.90;999.90;;;;;;;4.91;100.00;163707.16;5042432;28;20142;-66
2021/12/19 06:50:23;;;;;;;1999.90;999.90;;;;;;;5.04;100.00;163740.06;5039976;28;20406;-66
2021/12/19 06:52:50;;;;;;;1999.90;999.90;;;;;;;5.25;100.00;163797.69;5040283;28;20045;-66
2021/12/19 06:55:17;;;;;;;1999.90;999.90;;;;;;;5.56;100.00;163880.03;5039593;28;20099;-66
2021/12/19 06:57:45;;;;;;;1999.90;999.90;;;;;;;5.51;100.00;163866.34;5041029;28;20186;-66
2021/12/19 07:00:18;;;;;;;1999.90;999.90;;;;;;;4.93;100.00;163711.28;5039488;28;20076;-66
2021/12/19 07:02:45;;;;;;;1999.90;999.90;;;;;;;5.25;100.00;163797.69;5045062;28;20080;-66
2021/12/19 07:05:12;;;;;;;1999.90;999.90;;;;;;;5.35;100.00;163822.44;5037129;28;20065;-66
2021/12/19 07:07:39;;;;;;;1999.90;999.90;;;;;;;5.52;100.00;163869.06;5043626;28;20422;-66
2021/12/19 07:10:08;;;;;;;1999.90;999.90;;;;;;;5.31;100.00;163812.78;5040735;28;20345;-66
2021/12/19 07:12:35;;;;;;;1999.90;999.90;;;;;;;5.37;100.00;163829.25;5034498;28;20045;-66
2021/12/19 07:15:03;;;;;;;1999.90;999.90;;;;;;;5.45;100.00;163849.88;5035730;28;20049;-66
2021/12/19 07:17:30;;;;;;;1999.90;999.90;;;;;;;5.66;100.00;163906.16;5034700;28;20080;-66
2021/12/19 07:19:57;;;;;;;1999.90;999.90;;;;;;;5.39;100.00;163833.38;5039377;28;20174;-66
2021/12/19 07:22:23;;;;;;;1999.90;999.90;;;;;;;5.45;100.00;163851.22;5039682;28;20095;-66
2021/12/19 07:24:50;;;;;;;1999.90;999.90;;;;;;;5.45;100.00;163849.88;5045686;28;20048;-66
2021/12/19 07:27:17;;;;;;;1999.90;999.90;;;;;;;5.40;100.00;163837.47;5033463;28;20093;-66
2021/12/19 07:29:43;;;;;;;1999.90;999.90;;;;;;;5.32;100.00;163814.19;5043177;28;20402;-66
2021/12/19 07:32:11;;;;;;;1999.90;999.90;;;;;;;5.36;100.00;163825.13;5039664;28;20088;-66
2021/12/19 07:34:38;;;;;;;1999.90;999.90;;;;;;;5.56;100.00;163878.69;5033593;28;20411;-66
2021/12/19 07:37:05;;;;;;;1999.90;999.90;;;;;;;5.95;100.00;163984.34;5048354;28;20107;-66
2021/12/19 07:42:07;;;;;;;1999.90;999.90;;;;;;;5.35;100.00;163823.78;5041797;28;20045;-66
2021/12/19 07:44:35;;;;;;;1999.90;999.90;;;;;;;5.46;100.00;163852.59;5042856;28;20059;-66
2021/12/19 07:47:03;;;;;;;1999.90;999.90;;;;;;;5.38;100.00;163832.00;5046939;28;20045;-66
2021/12/19 07:49:29;;;;;;;1999.90;999.90;;;;;;;5.22;100.00;163789.44;5037890;28;20102;-66
2021/12/19 07:51:56;;;;;;;1999.90;999.90;;;;;;;5.24;100.00;163794.97;5048819;28;20267;-66
2021/12/19 07:54:22;;;;;;;1999.90;999.90;;;;;;;5.06;100.00;163746.94;5037675;28;20049;-66
2021/12/19 07:56:51;;;;;;;1999.90;999.90;;;;;;;5.20;100.00;163783.97;5034299;28;20084;-66
2021/12/19 07:59:18;;;;;;;1999.90;999.90;;;;;;;5.47;100.00;163855.34;5037559;28;20446;-66
2021/12/19 08:01:45;;;;;;;1999.90;999.90;;;;;;;5.60;100.00;163891.03;5043499;28;20081;-66
2021/12/19 08:04:12;;;;;;;1999.90;999.90;;;;;;;5.61;100.00;163893.78;5042697;28;20082;-66
2021/12/19 08:06:38;;;;;;;1999.90;999.90;;;;;;;5.76;100.00;163932.19;5036271;28;20150;-66
2021/12/19 08:09:10;;;;;;;1999.90;999.90;;;;;;;5.69;100.00;163913.03;5040423;28;20049;-66
2021/12/19 08:11:40;;;;;;;1999.90;999.90;;;;;;;5.70;100.00;163915.72;5037575;28;20088;-66
2021/12/19 08:14:12;;;;;;;1999.90;999.90;;;;;;;5.93;100.00;163978.88;5037959;28;20049;-66
2021/12/19 08:16:41;;;;;;;1999.90;999.90;;;;;;;5.59;100.00;163888.28;5038473;28;20077;-66
2021/12/19 08:19:08;;;;;;;1999.90;999.90;;;;;;;5.74;100.00;163928.09;5047427;28;21174;-66
2021/12/19 08:21:35;;;;;;;1999.90;999.90;;;;;;;5.68;100.00;163911.63;5042846;28;20173;-66
2021/12/19 08:24:04;;;;;;;1999.90;999.90;;;;;;;5.67;100.00;163908.84;5040466;28;20080;-66
2021/12/19 08:26:31;;;;;;;1999.90;999.90;;;;;;;5.27;100.00;163803.19;5039602;28;20041;-65
2021/12/19 08:29:03;;;;;;;1999.90;999.90;;;;;;;5.36;100.00;163825.13;5046321;28;20136;-66
2021/12/19 08:31:30;;;;;;;1999.90;999.90;;;;;;;5.79;100.00;163940.44;5046215;28;20089;-66
2021/12/19 08:33:58;;;;;;;1999.90;999.90;;;;;;;5.43;100.00;163844.34;5044571;28;20506;-66
2021/12/19 08:36:27;;;;;;;1999.90;999.90;;;;;;;5.22;100.00;163789.44;5035895;28;20334;-66
2021/12/19 08:38:53;;;;;;;1999.90;999.90;;;;;;;5.53;100.00;163870.47;5036434;28;20084;-66
2021/12/19 08:41:20;;;;;;;1999.90;999.90;;;;;;;5.31;100.00;163811.44;5036965;28;20097;-66
2021/12/19 08:43:47;;;;;;;1999.90;999.90;;;;;;;5.70;100.00;163917.13;5039198;28;20057;-66
2021/12/19 08:46:13;;;;;;;1999.90;999.90;;;;;;;5.57;100.00;163881.44;5039148;28;20490;-66
2021/12/19 08:48:40;;;;;;;1999.90;999.90;;;;;;;5.61;100.00;163893.78;5036788;28;20069;-66
2021/12/19 08:51:07;;;;;;;1999.90;999.90;;;;;;;5.79;100.00;163940.44;5038790;28;20104;-66
2021/12/19 08:53:34;;;;;;;1999.90;999.90;;;;;;;5.82;100.00;163948.66;5042657;28;20250;-67
2021/12/19 08:56:01;;;;;;;1999.90;999.90;;;;;;;5.67;100.00;163907.50;5045060;28;20065;-66
2021/12/19 08:58:29;;;;;;;1999.90;999.90;;;;;;;5.62;100.00;163896.50;5036130;28;20096;-66
2021/12/19 09:01:01;;;;;;;1999.90;999.90;;;;;;;5.46;100.00;163854.00;5044138;28;20430;-66
2021/12/19 09:03:29;;;;;;;1999.90;999.90;;;;;;;5.51;100.00;163866.34;5040774;28;20131;-66
2021/12/19 09:05:57;;;;;;;1999.90;999.90;;;;;;;5.60;100.00;163891.03;5037511;28;20049;-66
2021/12/19 09:08:23;;;;;;;1999.90;999.90;;;;;;;5.55;100.00;163877.34;5035464;28;20419;-67
2021/12/19 09:10:51;;;;;;;1999.90;999.90;;;;;;;5.37;100.00;163827.88;5035385;28;20458;-66
2021/12/19 09:13:18;;;;;;;1999.90;999.90;;;;;;;5.85;100.00;163956.94;5044246;28;20080;-66
2021/12/19 09:15:44;;;;;;;1999.90;999.90;;;;;;;6.02;100.00;164000.94;5038393;28;20115;-66
2021/12/19 09:18:11;;;;;;;1999.90;999.90;;;;;;;5.71;100.00;163919.84;5038751;28;20112;-66
2021/12/19 09:20:37;;;;;;;1999.90;999.90;;;;;;;5.85;100.00;163956.94;5034327;28;20442;-67
2021/12/19 09:23:04;;;;;;;1999.90;999.90;;;;;;;5.61;100.00;163893.78;5038692;28;20045;-67
2021/12/19 09:25:31;;;;;;;1999.90;999.90;;;;;;;5.38;100.00;163830.66;5039200;28;20092;-67
2021/12/19 09:27:57;;;;;;;1999.90;999.90;;;;;;;5.39;100.00;163834.78;5046646;28;20076;-67
2021/12/19 09:30:25;;;;;;;1999.90;999.90;;;;;;;5.37;100.00;163829.25;5044900;28;20110;-66
2021/12/19 09:32:53;;;;;;;1999.90;999.90;;;;;;;5.53;100.00;163871.81;5040305;28;20052;-66
2021/12/19 09:35:19;;;;;;;1999.90;999.90;;;;;;;5.29;100.00;163808.66;5038822;28;20525;-66
2021/12/19 09:37:46;;;;;;;1999.90;999.90;;;;;;;5.54;100.00;163874.56;5033368;28;20080;-67
2021/12/19 09:40:19;;;;;;;1999.90;999.90;;;;;;;5.53;100.00;163871.81;5036817;28;20083;-67
2021/12/19 09:42:49;;;;;;;1999.90;999.90;;;;;;;5.59;100.00;163888.28;5035746;28;20052;-67
2021/12/19 09:45:17;;;;;;;1999.90;999.90;;;;;;;5.36;100.00;163825.13;5045000;28;20119;-67
2021/12/19 09:47:44;;;;;;;1999.90;999.90;;;;;;;5.50;100.00;163862.22;5038313;28;20299;-67
2021/12/19 09:50:11;;;;;;;1999.90;999.90;;;;;;;5.55;100.00;163875.94;5042120;28;20140;-67
2021/12/19 09:52:38;;;;;;;1999.90;999.90;;;;;;;5.64;100.00;163902.03;5043262;28;20944;-67
2021/12/19 09:55:05;;;;;;;1999.90;999.90;;;;;;;5.28;100.00;163804.56;5042605;28;20050;-67
2021/12/19 09:57:31;;;;;;;1999.90;999.90;;;;;;;5.48;100.00;163858.09;5038475;28;20064;-66
2021/12/19 09:59:59;;;;;;;1999.90;999.90;;;;;;;5.24;100.00;163794.97;5038650;28;20430;-66
2021/12/19 10:02:25;;;;;;;1999.90;999.90;;;;;;;5.50;100.00;163863.56;5045668;28;20469;-66
2021/12/19 10:04:52;;;;;;;1999.90;999.90;;;;;;;5.97;100.00;163989.94;5040870;28;20059;-66
2021/12/19 10:07:23;;;;;;;1999.90;999.90;;;;;;;5.92;100.00;163976.13;5033953;28;20347;-66
2021/12/19 10:10:01;;;;;;;1999.90;999.90;;;;;;;6.06;100.00;164011.88;5039468;28;20410;-66
2021/12/19 10:12:39;;;;;;;1999.90;999.90;;;;;;;5.77;100.00;163934.97;5040829;28;20377;-66
2021/12/19 10:15:11;;;;;;;1999.90;999.90;;;;;;;5.33;100.00;163816.91;5042034;28;20044;-66
2021/12/19 10:17:39;;;;;;;1999.90;999.90;;;;;;;5.23;100.00;163792.22;5044872;28;20053;-66
2021/12/19 10:20:10;;;;;;;1999.90;999.90;;;;;;;5.51;100.00;163866.34;5039134;28;20108;-68
2021/12/19 10:22:39;;;;;;;1999.90;999.90;;;;;;;5.43;100.00;163844.34;5035463;28;20413;-67
2021/12/19 10:25:09;;;;;;;1999.90;999.90;;;;;;;5.45;100.00;163849.88;5044453;28;20326;-65
2021/12/19 10:27:37;;;;;;;1999.90;999.90;;;;;;;5.72;100.00;163922.59;5038359;28;20045;-66
2021/12/19 10:30:26;;;;;;;1999.90;999.90;;;;;;;5.96;100.00;163987.13;5045110;28;20503;-65
2021/12/19 10:32:57;;;;;;;1999.90;999.90;;;;;;;5.78;100.00;163937.72;5039142;28;20049;-66
2021/12/19 10:35:29;;;;;;;1999.90;999.90;;;;;;;6.15;100.00;164038.00;5043556;28;20501;-66
2021/12/19 10:37:57;;;;;;;1999.90;999.90;;;;;;;5.80;100.00;163943.19;5038671;28;20072;-65
2021/12/19 10:40:25;;;;;;;1999.90;999.90;;;;;;;5.61;100.00;163892.38;5037543;28;20088;-66
2021/12/19 10:43:00;;;;;;;1999.90;999.90;;;;;;;5.43;100.00;163844.34;5043392;28;20049;-67
2021/12/19 10:45:45;;;;;;;1999.90;999.90;;;;;;;5.45;100.00;163851.22;5036334;28;20049;-67
2021/12/19 10:48:31;;;;;;;1999.90;999.90;;;;;;;5.26;100.00;163800.44;5029950;28;20082;-66
2021/12/19 10:51:03;;;;;;;1999.90;999.90;;;;;;;5.70;100.00;163915.72;5035738;28;20076;-66
2021/12/19 10:53:31;;;;;;;1999.90;999.90;;;;;;;5.52;100.00;163867.69;5038874;28;20042;-67
2021/12/19 10:55:58;;;;;;;1999.90;999.90;;;;;;;5.65;100.00;163903.38;5035269;28;20107;-67
2021/12/19 10:58:42;;;;;;;1999.90;999.90;;;;;;;5.44;100.00;163847.13;5039042;28;20123;-66
2021/12/19 11:01:18;;;;;;;1999.90;999.90;;;;;;;5.58;100.00;163884.16;5043973;28;20049;-66
2021/12/19 11:04:09;;;;;;;1999.90;999.90;;;;;;;5.65;100.00;163903.38;5037765;28;20073;-67
2021/12/19 11:06:41;;;;;;;1999.90;999.90;;;;;;;5.91;100.00;163973.41;5035847;28;20056;-66
2021/12/19 11:09:11;;;;;;;1999.90;999.90;;;;;;;5.50;100.00;163863.56;5042020;28;20132;-66
2021/12/19 11:11:39;;;;;;;1999.90;999.90;;;;;;;5.33;100.00;163816.91;5040568;28;20069;-66
2021/12/19 11:14:08;;;;;;;1999.90;999.90;;;;;;;5.37;100.00;163827.88;5034915;28;20411;-66
2021/12/19 11:16:34;;;;;;;1999.90;999.90;;;;;;;5.60;100.00;163891.03;5030790;28;20139;-67
2021/12/19 11:19:01;;;;;;;1999.90;999.90;;;;;;;5.97;100.00;163989.94;5039695;28;20107;-67
2021/12/19 11:21:33;;;;;;;1999.90;999.90;;;;;;;6.33;100.00;164084.69;5036799;28;20045;-67
2021/12/19 11:24:04;;;;;;;1999.90;999.90;;;;;;;5.90;100.00;163970.66;5042893;28;20215;-66
2021/12/19 11:26:32;;;;;;;1999.90;999.90;;;;;;;5.68;100.00;163911.63;5033448;28;20079;-65
2021/12/19 11:28:59;;;;;;;1999.90;999.90;;;;;;;5.98;100.00;163992.69;5036634;28;20403;-66
2021/12/19 11:31:31;;;;;;;1999.90;999.90;;;;;;;6.20;100.00;164050.34;5033045;28;20066;-66
2021/12/19 11:34:03;;;;;;;1999.90;999.90;;;;;;;5.76;100.00;163932.19;5042451;28;20512;-66
2021/12/19 11:36:34;;;;;;;1999.90;999.90;;;;;;;5.37;100.00;163827.88;5032914;28;20155;-66
2021/12/19 11:39:03;;;;;;;1999.90;999.90;;;;;;;5.32;100.00;163815.56;5035897;28;20045;-66
2021/12/19 11:41:31;;;;;;;1999.90;999.90;;;;;;;5.45;100.00;163851.22;5036499;28;20056;-66
2021/12/19 11:44:02;;;;;;;1999.90;999.90;;;;;;;6.05;100.00;164009.16;5034038;28;20419;-67
2021/12/19 11:46:46;;;;;;;1999.90;999.90;;;;;;;6.47;100.00;164121.75;5043916;28;20075;-66
2021/12/19 11:49:20;;;;;;;1999.90;999.90;;;;;;;5.92;100.00;163976.13;5032442;28;20178;-66
2021/12/19 11:51:47;;;;;;;1999.90;999.90;;;;;;;5.58;100.00;163884.16;5036274;28;20261;-66
2021/12/19 11:54:17;;;;;;;1999.90;999.90;;;;;;;5.28;100.00;163805.97;5032036;28;20143;-66
2021/12/19 11:57:10;;;;;;;1999.90;999.90;;;;;;;5.50;100.00;163863.56;5035436;28;20449;-66
2021/12/19 11:59:39;;;;;;;1999.90;999.90;;;;;;;5.71;100.00;163918.50;5030108;28;20099;-66